createdAt,value
2022-09-12T18:55:32.127Z,2.00
2022-09-12T18:58:00.171Z,2.53
2022-09-12T19:00:28.619Z,2.38
2022-09-12T19:02:56.630Z,2.20
2022-09-12T19:05:24.642Z,2.25
2022-09-12T19:07:52.716Z,2.13
2022-09-12T19:10:20.760Z,2.40
2022-09-12T19:12:50.135Z,2.50
2022-09-12T19:15:18.307Z,2.30
2022-09-12T19:17:46.325Z,2.40
2022-09-12T19:20:14.402Z,2.10
2022-09-12T19:22:42.448Z,2.25
2022-09-12T19:25:10.597Z,3.50
2022-09-12T19:27:38.944Z,2.20
2022-09-12T19:30:09.958Z,2.80
2022-09-12T19:32:38.105Z,2.33
2022-09-12T19:35:06.869Z,2.35
2022-09-12T19:37:35.120Z,2.22
2022-09-12T19:40:04.410Z,2.25
2022-09-12T19:42:32.595Z,2.28
2022-09-12T19:45:00.588Z,2.40
2022-09-12T19:47:30.067Z,2.65
2022-09-12T19:49:58.147Z,2.10
2022-09-12T19:52:26.190Z,2.05
2022-09-12T19:54:54.409Z,2.28
2022-09-12T19:57:22.481Z,2.30
2022-09-12T19:59:50.558Z,2.25
2022-09-12T20:02:18.675Z,2.20
2022-09-12T20:04:48.492Z,2.35
2022-09-12T20:07:16.495Z,2.17
2022-09-12T20:09:44.588Z,2.15
2022-09-12T20:12:14.433Z,3.15
2022-09-12T20:14:42.397Z,2.60
2022-09-12T20:17:10.590Z,2.70
2022-09-12T20:19:38.822Z,2.40
2022-09-12T20:22:08.192Z,3.13
2022-09-12T20:24:37.445Z,2.70
2022-09-12T20:27:05.564Z,2.65
2022-09-12T20:29:33.523Z,2.80
2022-09-12T20:32:01.796Z,3.55
2022-09-12T20:34:29.931Z,3.65
2022-09-12T20:36:58.246Z,3.50
2022-09-12T20:39:27.726Z,3.45
2022-09-12T20:41:55.782Z,3.65
2022-09-12T20:44:23.804Z,4.43
2022-09-12T20:46:52.417Z,3.75
2022-09-12T20:49:20.425Z,4.03
2022-09-12T20:51:48.728Z,4.65
2022-09-12T20:54:17.178Z,3.50
2022-09-12T20:56:46.766Z,3.53
2022-09-12T20:59:14.758Z,3.72
2022-09-12T21:01:43.987Z,3.85
2022-09-12T21:04:15.165Z,3.85
2022-09-12T21:06:43.522Z,3.35
2022-09-12T21:09:11.606Z,3.72
2022-09-12T21:11:39.644Z,3.67
2022-09-12T21:14:09.002Z,3.30
2022-09-12T21:16:38.635Z,3.20
2022-09-12T21:19:07.567Z,2.30
2022-09-12T21:21:35.655Z,3.10
2022-09-12T21:24:04.311Z,2.97
2022-09-12T21:26:33.022Z,3.28
2022-09-12T21:29:01.103Z,3.05
2022-09-12T21:31:30.914Z,3.30
2022-09-12T21:33:58.945Z,3.00
2022-09-12T21:36:27.024Z,3.00
2022-09-12T21:38:58.722Z,2.80
2022-09-12T21:41:26.828Z,3.35
2022-09-12T21:43:54.761Z,3.05
2022-09-12T21:46:22.796Z,3.00
2022-09-12T21:48:52.156Z,3.10
2022-09-12T21:51:20.141Z,2.70
2022-09-12T21:53:48.196Z,3.42
2022-09-12T21:56:16.346Z,3.50
2022-09-12T21:58:44.431Z,3.15
2022-09-12T22:01:13.121Z,3.67
2022-09-12T22:03:44.313Z,3.47
2022-09-12T22:06:14.870Z,3.30
2022-09-12T22:08:43.055Z,3.22
2022-09-12T22:11:11.610Z,3.30
2022-09-12T22:13:42.818Z,3.30
2022-09-12T22:16:11.448Z,3.15
2022-09-12T22:18:40.092Z,3.30
2022-09-12T22:21:12.351Z,3.80
2022-09-12T22:23:59.065Z,3.17
2022-09-12T22:26:28.218Z,3.58
2022-09-12T22:28:56.281Z,3.50
2022-09-12T22:31:24.489Z,3.35
2022-09-12T22:33:52.676Z,3.50
2022-09-12T22:36:20.732Z,3.50
2022-09-12T22:38:50.974Z,4.10
2022-09-12T22:41:19.111Z,3.75
2022-09-12T22:43:47.060Z,3.05
2022-09-12T22:46:15.209Z,4.50
2022-09-12T22:48:43.726Z,3.40
2022-09-12T22:51:12.405Z,3.78
2022-09-12T22:53:40.773Z,3.78
2022-09-12T22:56:10.612Z,3.88
2022-09-12T22:58:38.844Z,3.95
2022-09-12T23:01:07.439Z,4.03
2022-09-12T23:03:36.431Z,3.78
2022-09-12T23:06:05.622Z,3.92
2022-09-12T23:08:36.218Z,3.88
2022-09-12T23:11:05.540Z,3.55
2022-09-12T23:13:36.316Z,3.70
2022-09-12T23:18:35.358Z,4.38
2022-09-12T23:21:06.630Z,3.83
2022-09-12T23:23:34.802Z,3.80
2022-09-12T23:26:07.898Z,4.03
2022-09-12T23:28:39.128Z,3.97
2022-09-12T23:31:09.522Z,3.70
2022-09-12T23:33:37.978Z,3.22
2022-09-12T23:36:08.494Z,3.20
2022-09-12T23:38:37.126Z,3.80
2022-09-12T23:41:05.756Z,3.70
2022-09-12T23:43:34.109Z,4.25
2022-09-12T23:46:04.689Z,3.75
2022-09-12T23:48:33.961Z,3.95
2022-09-12T23:51:03.087Z,3.95
2022-09-12T23:53:31.147Z,3.80
2022-09-12T23:55:59.450Z,3.90
2022-09-12T23:58:27.416Z,3.97
